createdAt,value
2022-09-07T00:03:14.025Z,25.73
2022-09-07T00:07:16.314Z,20.33
2022-09-07T00:11:19.742Z,26.20
2022-09-07T00:15:21.946Z,25.77
2022-09-07T00:19:23.867Z,22.92
2022-09-07T00:23:27.579Z,23.48
2022-09-07T00:27:29.743Z,16.70
2022-09-07T00:31:32.420Z,22.13
2022-09-07T00:35:40.110Z,16.65
2022-09-07T00:39:42.459Z,15.97
2022-09-07T00:43:56.845Z,14.18
2022-09-07T00:48:07.712Z,13.75
2022-09-07T00:52:12.484Z,17.75
2022-09-07T00:56:14.710Z,18.65
2022-09-07T01:00:17.217Z,17.73
2022-09-07T01:04:20.382Z,17.95
2022-09-07T01:08:25.737Z,17.80
2022-09-07T01:12:27.964Z,16.60
2022-09-07T01:17:08.259Z,15.63
2022-09-07T01:21:19.755Z,18.08
2022-09-07T01:25:23.478Z,16.00
2022-09-07T01:29:47.834Z,18.30
2022-09-07T01:33:55.422Z,17.55
2022-09-07T01:38:09.943Z,18.55
2022-09-07T01:42:15.018Z,14.55
2022-09-07T01:46:27.083Z,18.17
2022-09-07T01:50:38.350Z,21.50
2022-09-07T01:55:03.336Z,15.15
2022-09-07T01:59:18.803Z,20.63
2022-09-07T02:03:29.974Z,16.80
2022-09-07T02:07:56.505Z,15.75
2022-09-07T02:12:04.005Z,18.17
2022-09-07T02:16:36.636Z,18.45
2022-09-07T02:20:42.874Z,16.67
2022-09-07T02:24:50.902Z,16.00
2022-09-07T02:28:53.383Z,16.15
2022-09-07T02:32:56.477Z,18.55
2022-09-07T02:37:02.930Z,15.18
2022-09-07T02:41:07.414Z,18.33
2022-09-07T02:45:13.347Z,16.80
2022-09-07T02:49:15.349Z,14.65
2022-09-07T02:53:39.837Z,14.73
2022-09-07T02:58:00.546Z,18.45
2022-09-07T03:02:05.814Z,14.48
2022-09-07T03:06:21.418Z,14.07
2022-09-07T03:10:24.880Z,17.88
2022-09-07T03:14:27.096Z,16.08
2022-09-07T03:18:29.851Z,13.25
2022-09-07T03:22:34.164Z,12.02
2022-09-07T03:26:43.364Z,15.77
2022-09-07T03:30:49.450Z,14.00
2022-09-07T03:34:52.363Z,18.52
2022-09-07T03:38:55.330Z,14.80
2022-09-07T03:42:57.653Z,10.90
2022-09-07T03:46:59.956Z,12.98
2022-09-07T03:51:08.426Z,15.77
2022-09-07T03:55:10.461Z,11.48
2022-09-07T03:59:12.819Z,18.48
2022-09-07T04:03:15.060Z,16.10
2022-09-07T04:07:17.375Z,12.23
2022-09-07T04:11:20.028Z,15.25
2022-09-07T04:15:22.458Z,16.77
2022-09-07T04:19:24.694Z,16.80
2022-09-07T04:23:27.108Z,13.10
2022-09-07T04:27:29.221Z,18.10
2022-09-07T04:31:34.431Z,11.60
2022-09-07T04:35:42.077Z,17.98
2022-09-07T04:39:44.407Z,12.25
2022-09-07T04:43:47.698Z,21.10
2022-09-07T04:47:50.155Z,14.48
2022-09-07T04:51:55.392Z,20.30
2022-09-07T04:56:00.582Z,16.77
2022-09-07T05:00:04.047Z,19.25
2022-09-07T05:04:06.297Z,16.13
2022-09-07T05:08:08.269Z,15.48
2022-09-07T05:12:10.995Z,21.35
2022-09-07T05:16:24.260Z,19.63
2022-09-07T05:20:26.767Z,19.02
2022-09-07T05:24:28.917Z,19.95
2022-09-07T05:28:31.778Z,14.25
2022-09-07T05:32:34.439Z,16.67
2022-09-07T05:36:37.143Z,17.95
2022-09-07T05:40:40.786Z,18.83
2022-09-07T05:44:43.951Z,17.25
2022-09-07T05:48:47.084Z,24.58
2022-09-07T05:52:49.476Z,21.58
2022-09-07T05:56:51.444Z,12.20
2022-09-07T06:00:57.607Z,15.35
2022-09-07T06:04:59.601Z,14.55
2022-09-07T06:09:01.878Z,24.35
2022-09-07T06:13:04.801Z,18.60
2022-09-07T06:17:07.034Z,19.25
2022-09-07T06:21:30.579Z,15.82
2022-09-07T06:25:33.508Z,16.52
2022-09-07T06:29:35.817Z,9.90
2022-09-07T06:33:37.997Z,19.85
2022-09-07T06:37:40.765Z,12.10
2022-09-07T06:41:58.880Z,9.05
2022-09-07T06:50:28.450Z,9.43
2022-09-07T06:58:55.408Z,9.98
2022-09-07T07:02:57.452Z,5.28
2022-09-07T07:06:59.755Z,7.55
2022-09-07T07:11:10.423Z,7.22
2022-09-07T07:15:12.629Z,5.32
2022-09-07T07:19:14.749Z,13.02
2022-09-07T07:23:17.072Z,6.10
2022-09-07T07:27:19.107Z,9.35
2022-09-07T07:31:26.385Z,6.00
2022-09-07T07:35:28.338Z,5.82
2022-09-07T07:43:57.336Z,3.95
2022-09-07T07:47:59.543Z,7.00
2022-09-07T07:56:24.659Z,2.78
2022-09-07T08:00:43.710Z,4.40
2022-09-07T08:04:49.460Z,4.40
2022-09-07T08:08:51.555Z,2.20
2022-09-07T08:12:53.721Z,2.28
2022-09-07T08:16:55.634Z,2.78
2022-09-07T08:21:05.847Z,1.75
2022-09-07T08:25:08.810Z,1.98
2022-09-07T08:29:11.046Z,6.55
2022-09-07T08:33:13.183Z,1.52
2022-09-07T08:37:15.395Z,7.90
2022-09-07T08:41:34.356Z,4.07
2022-09-07T08:45:45.595Z,1.63
2022-09-07T08:50:03.174Z,4.65
2022-09-07T08:54:06.376Z,2.95
2022-09-07T08:58:32.590Z,3.35
2022-09-07T09:02:44.017Z,3.05
2022-09-07T09:07:03.393Z,4.78
2022-09-07T09:11:17.433Z,3.65
2022-09-07T09:15:32.342Z,2.63
2022-09-07T09:19:41.747Z,1.30
2022-09-07T09:23:46.565Z,4.65
2022-09-07T09:27:49.835Z,3.17
2022-09-07T09:31:53.676Z,5.70
2022-09-07T09:36:00.832Z,3.30
2022-09-07T09:40:04.562Z,2.13
2022-09-07T09:44:16.398Z,3.35
2022-09-07T09:48:24.027Z,7.28
2022-09-07T09:52:45.045Z,3.72
2022-09-07T09:56:50.085Z,1.70
2022-09-07T10:05:24.730Z,6.15
2022-09-07T10:09:38.118Z,2.60
2022-09-07T10:13:56.232Z,3.70
2022-09-07T10:17:59.710Z,2.78
2022-09-07T10:22:18.791Z,5.60
2022-09-07T10:26:28.658Z,9.97
2022-09-07T10:30:41.190Z,6.10
2022-09-07T10:34:49.070Z,3.25
2022-09-07T10:39:01.467Z,8.48
2022-09-07T10:43:22.348Z,3.80
2022-09-07T10:47:30.752Z,1.83
2022-09-07T10:51:56.358Z,4.93
2022-09-07T10:56:26.499Z,1.30
2022-09-07T11:00:39.280Z,2.53
2022-09-07T11:04:49.554Z,3.92
2022-09-07T11:09:21.074Z,3.13
2022-09-07T11:13:30.219Z,1.52
2022-09-07T11:17:55.248Z,1.27
2022-09-07T11:22:16.198Z,2.55
2022-09-07T11:26:39.607Z,5.97
2022-09-07T11:31:01.011Z,4.78
2022-09-07T11:35:25.942Z,3.80
2022-09-07T11:39:55.302Z,4.70
2022-09-07T11:44:28.855Z,3.88
2022-09-07T11:48:42.205Z,3.10
2022-09-07T11:53:14.933Z,2.65
2022-09-07T11:57:38.298Z,1.90
2022-09-07T12:02:02.170Z,3.47
2022-09-07T12:06:15.342Z,3.67
2022-09-07T12:10:39.917Z,5.70
2022-09-07T12:15:02.722Z,2.63
2022-09-07T12:19:23.729Z,1.90
2022-09-07T12:23:29.847Z,2.15
2022-09-07T12:27:31.984Z,3.78
2022-09-07T12:36:26.382Z,2.00
2022-09-07T12:40:33.798Z,3.78
2022-09-07T12:44:37.739Z,2.47
2022-09-07T12:49:10.768Z,3.38
2022-09-07T12:53:13.004Z,1.75
2022-09-07T12:57:35.956Z,4.15
2022-09-07T13:01:50.442Z,8.20
2022-09-07T13:10:49.463Z,2.50
2022-09-07T13:14:55.726Z,1.95
2022-09-07T13:18:59.527Z,1.50
2022-09-07T13:23:12.282Z,3.45
2022-09-07T13:27:27.582Z,4.78
2022-09-07T13:31:52.926Z,4.82
2022-09-07T13:36:00.370Z,8.35
2022-09-07T13:40:04.221Z,1.70
2022-09-07T13:44:06.630Z,2.97
2022-09-07T13:48:20.434Z,2.72
2022-09-07T13:52:33.677Z,1.13
2022-09-07T13:56:58.435Z,3.33
2022-09-07T14:01:18.483Z,2.80
2022-09-07T14:05:22.498Z,3.22
2022-09-07T14:09:27.263Z,9.05
2022-09-07T14:13:29.497Z,0.90
2022-09-07T14:17:31.591Z,7.63
2022-09-07T14:21:33.740Z,3.58
2022-09-07T14:26:16.037Z,3.53
2022-09-07T14:30:20.325Z,3.63
2022-09-07T14:34:26.573Z,4.18
2022-09-07T14:42:55.905Z,3.15
2022-09-07T14:47:02.766Z,2.53
2022-09-07T14:51:26.941Z,3.20
2022-09-07T14:55:37.131Z,2.67
2022-09-07T14:59:44.422Z,4.15
2022-09-07T15:03:46.531Z,5.93
2022-09-07T15:07:51.834Z,7.43
2022-09-07T15:12:04.220Z,3.05
2022-09-07T15:16:18.991Z,10.10
2022-09-07T15:20:44.399Z,6.53
2022-09-07T15:24:50.337Z,3.50
2022-09-07T15:29:18.421Z,2.33
2022-09-07T15:33:14.438Z,6.15
2022-09-07T15:41:38.600Z,3.45
2022-09-07T15:45:40.863Z,4.43
2022-09-07T15:49:50.342Z,4.85
2022-09-07T15:54:13.398Z,3.03
2022-09-07T15:58:15.750Z,3.72
2022-09-07T16:06:41.290Z,2.17
2022-09-07T16:10:43.432Z,4.85
2022-09-07T16:14:45.481Z,7.38
2022-09-07T16:18:48.122Z,5.00
2022-09-07T16:27:13.039Z,3.60
2022-09-07T16:31:18.870Z,2.72
2022-09-07T16:35:21.077Z,3.28
2022-09-07T16:39:23.383Z,2.35
2022-09-07T16:43:25.927Z,6.53
2022-09-07T16:47:27.870Z,3.83
2022-09-07T16:51:30.042Z,2.15
2022-09-07T16:55:32.223Z,3.60
2022-09-07T16:59:34.899Z,2.47
2022-09-07T17:03:38.419Z,3.63
2022-09-07T17:07:40.590Z,3.95
2022-09-07T17:11:42.607Z,5.57
2022-09-07T17:15:44.755Z,5.05
2022-09-07T17:19:46.707Z,5.47
2022-09-07T17:23:54.853Z,10.80
2022-09-07T17:27:57.792Z,7.68
2022-09-07T17:36:25.956Z,9.93
2022-09-07T17:40:28.557Z,12.77
2022-09-07T17:44:37.670Z,13.20
2022-09-07T17:48:40.665Z,6.10
2022-09-07T17:52:45.947Z,9.05
2022-09-07T17:56:48.635Z,6.97
2022-09-07T18:00:51.102Z,17.27
2022-09-07T18:04:53.471Z,9.07
2022-09-07T18:08:55.561Z,11.20
2022-09-07T18:12:57.721Z,11.20
2022-09-07T18:17:00.432Z,8.50
2022-09-07T18:21:03.379Z,7.70
2022-09-07T18:25:10.096Z,5.45
2022-09-07T18:29:27.314Z,15.73
2022-09-07T18:33:30.490Z,10.90
2022-09-07T18:37:32.725Z,8.55
2022-09-07T18:41:34.980Z,6.85
2022-09-07T18:45:37.226Z,9.57
2022-09-07T18:49:39.338Z,7.93
2022-09-07T18:53:41.818Z,7.72
2022-09-07T18:57:43.973Z,18.40
2022-09-07T19:01:46.247Z,12.40
2022-09-07T19:05:50.474Z,13.55
2022-09-07T19:09:53.084Z,13.65
2022-09-07T19:13:57.647Z,13.52
2022-09-07T19:17:59.963Z,21.60
2022-09-07T19:22:03.404Z,16.73
2022-09-07T19:26:11.176Z,18.35
2022-09-07T19:30:13.967Z,16.42
2022-09-07T19:34:17.056Z,16.63
2022-09-07T19:38:23.011Z,13.63
2022-09-07T19:42:28.042Z,13.70
2022-09-07T19:46:30.182Z,15.88
2022-09-07T19:50:32.573Z,13.85
2022-09-07T19:54:36.483Z,18.45
2022-09-07T19:58:44.437Z,21.83
2022-09-07T20:02:49.107Z,17.98
2022-09-07T20:06:51.884Z,16.80
2022-09-07T20:11:00.262Z,20.95
2022-09-07T20:15:02.431Z,10.57
2022-09-07T20:19:07.681Z,15.18
2022-09-07T20:23:10.002Z,11.85
2022-09-07T20:27:11.881Z,15.52
2022-09-07T20:31:16.201Z,18.13
2022-09-07T20:35:18.488Z,16.35
2022-09-07T20:39:20.849Z,12.88
2022-09-07T20:43:23.106Z,11.55
2022-09-07T20:47:25.503Z,12.73
2022-09-07T20:51:28.027Z,9.75
2022-09-07T20:55:30.496Z,12.15
2022-09-07T20:59:32.428Z,10.65
2022-09-07T21:03:34.668Z,9.43
2022-09-07T21:07:40.305Z,14.77
2022-09-07T21:11:46.108Z,10.23
2022-09-07T21:15:51.028Z,11.88
2022-09-07T21:19:53.308Z,12.00
2022-09-07T21:23:57.971Z,12.60
2022-09-07T21:28:00.290Z,11.05
2022-09-07T21:32:03.388Z,10.95
2022-09-07T21:36:06.321Z,10.52
2022-09-07T21:40:08.920Z,12.40
2022-09-07T21:44:13.665Z,17.13
2022-09-07T21:48:15.606Z,11.65
2022-09-07T21:52:18.286Z,11.90
2022-09-07T21:56:21.449Z,12.77
2022-09-07T22:00:23.618Z,14.45
2022-09-07T22:04:25.739Z,9.65
2022-09-07T22:08:33.088Z,8.75
2022-09-07T22:12:35.027Z,9.55
2022-09-07T22:16:37.237Z,10.30
2022-09-07T22:20:40.278Z,13.85
2022-09-07T22:24:42.484Z,12.93
2022-09-07T22:28:44.526Z,11.20
2022-09-07T22:32:48.123Z,12.07
2022-09-07T22:36:50.328Z,8.70
2022-09-07T22:40:52.460Z,8.57
2022-09-07T22:44:55.259Z,15.05
2022-09-07T22:48:59.313Z,9.95
2022-09-07T22:53:01.275Z,13.05
2022-09-07T22:57:03.596Z,8.27
2022-09-07T23:01:06.624Z,14.75
2022-09-07T23:05:09.624Z,12.10
2022-09-07T23:09:15.070Z,14.38
2022-09-07T23:13:17.704Z,11.32
2022-09-07T23:17:19.666Z,14.95
2022-09-07T23:21:22.079Z,17.83
2022-09-07T23:25:24.068Z,14.70
2022-09-07T23:29:26.351Z,12.40
2022-09-07T23:33:28.651Z,11.85
2022-09-07T23:37:31.899Z,12.07
2022-09-07T23:41:34.050Z,12.88
2022-09-07T23:45:37.029Z,14.35
2022-09-07T23:49:39.196Z,11.70
2022-09-07T23:53:41.561Z,10.75
2022-09-07T23:57:43.736Z,19.30
